sensor_id;sensor_type;location;lat;lon;timestamp;pressure;altitude;pressure_sealevel;temperature;humidity
78411;BME280;67706;51.074;-1.796;2023-06-10T00:01:23;100745.59;;;18.09;69.90
78411;BME280;67706;51.074;-1.796;2023-06-10T00:06:31;100749.09;;;18.05;70.03
78411;BME280;67706;51.074;-1.796;2023-06-10T00:09:01;100752.88;;;17.99;70.40
78411;BME280;67706;51.074;-1.796;2023-06-10T00:11:30;100746.63;;;17.92;70.63
78411;BME280;67706;51.074;-1.796;2023-06-10T00:13:57;100750.50;;;17.91;70.87
78411;BME280;67706;51.074;-1.796;2023-06-10T00:16:23;100751.56;;;17.90;70.88
78411;BME280;67706;51.074;-1.796;2023-06-10T00:18:50;100747.03;;;17.84;70.97
78411;BME280;67706;51.074;-1.796;2023-06-10T00:21:17;100744.13;;;17.79;71.09
78411;BME280;67706;51.074;-1.796;2023-06-10T00:23:45;100738.69;;;17.84;70.74
78411;BME280;67706;51.074;-1.796;2023-06-10T00:26:12;100749.53;;;17.85;70.65
78411;BME280;67706;51.074;-1.796;2023-06-10T00:28:39;100745.56;;;17.81;70.66
78411;BME280;67706;51.074;-1.796;2023-06-10T00:31:05;100750.69;;;17.73;71.05
78411;BME280;67706;51.074;-1.796;2023-06-10T00:33:32;100742.47;;;17.78;70.80
78411;BME280;67706;51.074;-1.796;2023-06-10T00:35:59;100739.19;;;17.81;70.48
78411;BME280;67706;51.074;-1.796;2023-06-10T00:38:25;100737.06;;;17.71;70.74
78411;BME280;67706;51.074;-1.796;2023-06-10T00:40:53;100742.75;;;17.65;71.12
78411;BME280;67706;51.074;-1.796;2023-06-10T00:43:20;100730.72;;;17.59;71.14
78411;BME280;67706;51.074;-1.796;2023-06-10T00:45:47;100733.38;;;17.54;71.36
78411;BME280;67706;51.074;-1.796;2023-06-10T00:48:14;100732.78;;;17.52;71.44
78411;BME280;67706;51.074;-1.796;2023-06-10T00:50:41;100732.19;;;17.50;71.73
78411;BME280;67706;51.074;-1.796;2023-06-10T00:53:08;100730.03;;;17.40;71.91
78411;BME280;67706;51.074;-1.796;2023-06-10T00:55:35;100724.00;;;17.32;72.00
78411;BME280;67706;51.074;-1.796;2023-06-10T00:58:03;100725.81;;;17.26;72.27
78411;BME280;67706;51.074;-1.796;2023-06-10T01:00:30;100726.41;;;17.28;72.37
78411;BME280;67706;51.074;-1.796;2023-06-10T01:02:57;100733.16;;;17.32;72.15
78411;BME280;67706;51.074;-1.796;2023-06-10T01:05:24;100727.97;;;17.24;72.37
78411;BME280;67706;51.074;-1.796;2023-06-10T01:07:56;100729.09;;;17.23;72.23
78411;BME280;67706;51.074;-1.796;2023-06-10T01:10:33;100725.22;;;17.24;72.18
78411;BME280;67706;51.074;-1.796;2023-06-10T01:13:05;100727.38;;;17.22;72.23
78411;BME280;67706;51.074;-1.796;2023-06-10T01:15:34;100727.38;;;17.22;72.18
78411;BME280;67706;51.074;-1.796;2023-06-10T01:18:02;100722.09;;;17.09;72.44
78411;BME280;67706;51.074;-1.796;2023-06-10T01:20:30;100737.66;;;17.10;72.58
78411;BME280;67706;51.074;-1.796;2023-06-10T01:23:00;100725.63;;;17.05;72.71
78411;BME280;67706;51.074;-1.796;2023-06-10T01:25:29;100726.94;;;17.02;72.99
78411;BME280;67706;51.074;-1.796;2023-06-10T01:28:04;100732.97;;;16.99;72.93
78411;BME280;67706;51.074;-1.796;2023-06-10T01:30:38;100727.31;;;16.94;73.23
78411;BME280;67706;51.074;-1.796;2023-06-10T01:33:09;100729.97;;;16.89;73.27
78411;BME280;67706;51.074;-1.796;2023-06-10T01:35:37;100730.69;;;16.85;73.55
78411;BME280;67706;51.074;-1.796;2023-06-10T01:38:06;100728.63;;;16.80;73.79
78411;BME280;67706;51.074;-1.796;2023-06-10T01:40:34;100726.59;;;16.76;73.88
78411;BME280;67706;51.074;-1.796;2023-06-10T01:43:01;100725.03;;;16.80;73.75
78411;BME280;67706;51.074;-1.796;2023-06-10T01:45:28;100732.38;;;16.74;73.94
78411;BME280;67706;51.074;-1.796;2023-06-10T01:47:55;100725.88;;;16.68;74.01
78411;BME280;67706;51.074;-1.796;2023-06-10T01:50:21;100727.53;;;16.69;74.14
78411;BME280;67706;51.074;-1.796;2023-06-10T01:52:48;100730.66;;;16.61;74.28
78411;BME280;67706;51.074;-1.796;2023-06-10T01:55:17;100718.88;;;16.54;74.53
78411;BME280;67706;51.074;-1.796;2023-06-10T01:57:43;100731.03;;;16.53;74.80
78411;BME280;67706;51.074;-1.796;2023-06-10T02:00:11;100723.22;;;16.50;74.83
78411;BME280;67706;51.074;-1.796;2023-06-10T02:02:38;100725.22;;;16.43;75.04
78411;BME280;67706;51.074;-1.796;2023-06-10T02:05:05;100711.59;;;16.30;75.38
78411;BME280;67706;51.074;-1.796;2023-06-10T02:07:32;100725.69;;;16.29;75.55
78411;BME280;67706;51.074;-1.796;2023-06-10T02:09:59;100733.97;;;16.29;75.43
78411;BME280;67706;51.074;-1.796;2023-06-10T02:12:27;100729.75;;;16.26;75.32
78411;BME280;67706;51.074;-1.796;2023-06-10T02:14:53;100738.56;;;16.23;75.53
78411;BME280;67706;51.074;-1.796;2023-06-10T02:17:20;100729.75;;;16.15;75.96
78411;BME280;67706;51.074;-1.796;2023-06-10T02:19:48;100735.13;;;16.10;76.17
78411;BME280;67706;51.074;-1.796;2023-06-10T02:22:19;100738.25;;;16.13;75.99
78411;BME280;67706;51.074;-1.796;2023-06-10T02:24:46;100730.19;;;16.12;75.81
78411;BME280;67706;51.074;-1.796;2023-06-10T02:27:12;100732.13;;;16.11;75.86
78411;BME280;67706;51.074;-1.796;2023-06-10T02:29:40;100738.47;;;16.00;76.31
78411;BME280;67706;51.074;-1.796;2023-06-10T02:32:09;100736.88;;;15.93;76.37
78411;BME280;67706;51.074;-1.796;2023-06-10T02:34:35;100737.81;;;15.86;76.75
78411;BME280;67706;51.074;-1.796;2023-06-10T02:37:03;100738.06;;;15.85;76.82
78411;BME280;67706;51.074;-1.796;2023-06-10T02:39:30;100739.72;;;15.86;76.52
78411;BME280;67706;51.074;-1.796;2023-06-10T02:41:56;100742.13;;;15.82;76.85
78411;BME280;67706;51.074;-1.796;2023-06-10T02:44:23;100738.75;;;15.80;76.70
78411;BME280;67706;51.074;-1.796;2023-06-10T02:46:51;100735.94;;;15.69;77.02
78411;BME280;67706;51.074;-1.796;2023-06-10T02:49:18;100745.69;;;15.71;76.97
78411;BME280;67706;51.074;-1.796;2023-06-10T02:51:44;100745.31;;;15.68;76.89
78411;BME280;67706;51.074;-1.796;2023-06-10T02:54:11;100742.03;;;15.59;77.25
78411;BME280;67706;51.074;-1.796;2023-06-10T02:56:38;100745.41;;;15.61;77.04
78411;BME280;67706;51.074;-1.796;2023-06-10T02:59:07;100748.50;;;15.53;77.42
78411;BME280;67706;51.074;-1.796;2023-06-10T03:01:33;100746.66;;;15.47;77.70
78411;BME280;67706;51.074;-1.796;2023-06-10T03:04:03;100747.72;;;15.46;77.42
78411;BME280;67706;51.074;-1.796;2023-06-10T03:06:30;100746.50;;;15.60;76.97
78411;BME280;67706;51.074;-1.796;2023-06-10T03:08:58;100752.31;;;15.52;77.05
78411;BME280;67706;51.074;-1.796;2023-06-10T03:11:25;100757.22;;;15.50;77.28
78411;BME280;67706;51.074;-1.796;2023-06-10T03:13:51;100753.66;;;15.50;77.26
78411;BME280;67706;51.074;-1.796;2023-06-10T03:16:19;100751.56;;;15.45;77.17
78411;BME280;67706;51.074;-1.796;2023-06-10T03:18:45;100752.47;;;15.39;77.54
78411;BME280;67706;51.074;-1.796;2023-06-10T03:21:14;100749.09;;;15.37;77.57
78411;BME280;67706;51.074;-1.796;2023-06-10T03:23:40;100746.16;;;15.32;77.77
78411;BME280;67706;51.074;-1.796;2023-06-10T03:26:07;100752.16;;;15.29;77.93
78411;BME280;67706;51.074;-1.796;2023-06-10T03:28:35;100747.09;;;15.26;77.87
78411;BME280;67706;51.074;-1.796;2023-06-10T03:31:02;100747.53;;;15.23;78.12
78411;BME280;67706;51.074;-1.796;2023-06-10T03:33:28;100739.50;;;15.22;78.25
78411;BME280;67706;51.074;-1.796;2023-06-10T03:35:55;100742.00;;;15.23;78.21
78411;BME280;67706;51.074;-1.796;2023-06-10T03:38:27;100745.09;;;15.15;77.69
78411;BME280;67706;51.074;-1.796;2023-06-10T03:40:53;100747.00;;;14.96;77.82
78411;BME280;67706;51.074;-1.796;2023-06-10T03:43:20;100751.59;;;14.84;77.86
78411;BME280;67706;51.074;-1.796;2023-06-10T03:45:47;100754.47;;;14.71;77.99
78411;BME280;67706;51.074;-1.796;2023-06-10T03:48:14;100756.34;;;14.53;78.59
78411;BME280;67706;51.074;-1.796;2023-06-10T03:50:42;100757.53;;;14.39;79.07
78411;BME280;67706;51.074;-1.796;2023-06-10T03:53:08;100752.31;;;14.24;79.45
78411;BME280;67706;51.074;-1.796;2023-06-10T03:55:36;100747.91;;;14.16;79.91
78411;BME280;67706;51.074;-1.796;2023-06-10T03:58:03;100744.59;;;14.01;80.51
78411;BME280;67706;51.074;-1.796;2023-06-10T04:00:30;100748.69;;;13.99;80.42
78411;BME280;67706;51.074;-1.796;2023-06-10T04:03:07;100738.59;;;13.80;80.94
78411;BME280;67706;51.074;-1.796;2023-06-10T04:05:35;100746.03;;;13.79;81.15
78411;BME280;67706;51.074;-1.796;2023-06-10T04:08:01;100738.38;;;13.81;80.86
78411;BME280;67706;51.074;-1.796;2023-06-10T04:10:28;100743.03;;;13.81;80.74
78411;BME280;67706;51.074;-1.796;2023-06-10T04:12:56;100749.16;;;13.89;80.49
78411;BME280;67706;51.074;-1.796;2023-06-10T04:15:23;100733.13;;;13.73;80.81
78411;BME280;67706;51.074;-1.796;2023-06-10T04:17:49;100746.28;;;13.71;81.14
78411;BME280;67706;51.074;-1.796;2023-06-10T04:20:16;100742.63;;;13.84;80.98
78411;BME280;67706;51.074;-1.796;2023-06-10T04:22:43;100750.59;;;13.98;80.08
78411;BME280;67706;51.074;-1.796;2023-06-10T04:25:10;100749.50;;;13.99;80.34
78411;BME280;67706;51.074;-1.796;2023-06-10T04:27:37;100748.69;;;13.99;80.18
78411;BME280;67706;51.074;-1.796;2023-06-10T04:30:06;100749.28;;;14.01;80.46
78411;BME280;67706;51.074;-1.796;2023-06-10T04:32:33;100754.78;;;14.07;80.25
78411;BME280;67706;51.074;-1.796;2023-06-10T04:35:00;100743.56;;;14.02;80.12
78411;BME280;67706;51.074;-1.796;2023-06-10T04:37:27;100747.75;;;14.11;80.04
78411;BME280;67706;51.074;-1.796;2023-06-10T04:39:54;100748.53;;;14.18;79.90
78411;BME280;67706;51.074;-1.796;2023-06-10T04:42:21;100743.81;;;14.25;79.97
78411;BME280;67706;51.074;-1.796;2023-06-10T04:44:48;100753.59;;;14.53;79.18
78411;BME280;67706;51.074;-1.796;2023-06-10T04:47:16;100739.41;;;14.92;78.14
78411;BME280;67706;51.074;-1.796;2023-06-10T04:49:43;100745.41;;;15.25;76.83
78411;BME280;67706;51.074;-1.796;2023-06-10T04:52:09;100743.56;;;15.37;76.13
78411;BME280;67706;51.074;-1.796;2023-06-10T04:54:36;100744.47;;;15.67;75.04
78411;BME280;67706;51.074;-1.796;2023-06-10T04:57:04;100746.63;;;15.65;74.87
78411;BME280;67706;51.074;-1.796;2023-06-10T04:59:31;100741.94;;;15.66;74.85
78411;BME280;67706;51.074;-1.796;2023-06-10T05:01:57;100740.72;;;15.62;74.90
78411;BME280;67706;51.074;-1.796;2023-06-10T05:04:26;100728.63;;;15.74;74.50
78411;BME280;67706;51.074;-1.796;2023-06-10T05:06:52;100738.44;;;15.88;74.20
78411;BME280;67706;51.074;-1.796;2023-06-10T05:09:19;100732.00;;;15.76;74.32
78411;BME280;67706;51.074;-1.796;2023-06-10T05:11:46;100742.47;;;15.56;75.24
78411;BME280;67706;51.074;-1.796;2023-06-10T05:14:13;100733.22;;;15.51;75.79
78411;BME280;67706;51.074;-1.796;2023-06-10T05:16:41;100735.00;;;15.45;76.05
78411;BME280;67706;51.074;-1.796;2023-06-10T05:19:08;100742.47;;;15.56;75.84
78411;BME280;67706;51.074;-1.796;2023-06-10T05:21:36;100743.09;;;15.40;76.52
78411;BME280;67706;51.074;-1.796;2023-06-10T05:24:04;100740.66;;;15.50;76.22
78411;BME280;67706;51.074;-1.796;2023-06-10T05:26:31;100748.00;;;15.38;76.61
78411;BME280;67706;51.074;-1.796;2023-06-10T05:28:58;100734.78;;;15.40;76.77
78411;BME280;67706;51.074;-1.796;2023-06-10T05:31:25;100734.34;;;15.61;76.03
78411;BME280;67706;51.074;-1.796;2023-06-10T05:33:51;100738.19;;;15.60;76.10
78411;BME280;67706;51.074;-1.796;2023-06-10T05:36:18;100737.78;;;15.75;75.48
78411;BME280;67706;51.074;-1.796;2023-06-10T05:38:46;100744.38;;;15.74;75.62
78411;BME280;67706;51.074;-1.796;2023-06-10T05:41:13;100748.13;;;15.79;75.10
78411;BME280;67706;51.074;-1.796;2023-06-10T05:43:40;100739.88;;;15.91;74.65
78411;BME280;67706;51.074;-1.796;2023-06-10T05:46:06;100753.47;;;15.93;74.62
78411;BME280;67706;51.074;-1.796;2023-06-10T05:48:33;100753.47;;;15.93;74.73
78411;BME280;67706;51.074;-1.796;2023-06-10T05:50:59;100747.69;;;15.94;74.60
78411;BME280;67706;51.074;-1.796;2023-06-10T05:53:26;100758.28;;;15.85;74.77
78411;BME280;67706;51.074;-1.796;2023-06-10T05:55:55;100755.63;;;15.90;74.57
78411;BME280;67706;51.074;-1.796;2023-06-10T05:58:23;100758.31;;;15.97;74.84
78411;BME280;67706;51.074;-1.796;2023-06-10T06:00:49;100762.03;;;15.91;74.71
78411;BME280;67706;51.074;-1.796;2023-06-10T06:03:17;100760.63;;;16.00;74.38
78411;BME280;67706;51.074;-1.796;2023-06-10T06:05:43;100766.03;;;16.07;74.12
78411;BME280;67706;51.074;-1.796;2023-06-10T06:08:11;100776.19;;;16.13;74.07
78411;BME280;67706;51.074;-1.796;2023-06-10T06:10:39;100779.59;;;16.26;73.62
78411;BME280;67706;51.074;-1.796;2023-06-10T06:13:07;100783.09;;;16.33;73.34
78411;BME280;67706;51.074;-1.796;2023-06-10T06:15:33;100785.72;;;16.28;73.48
78411;BME280;67706;51.074;-1.796;2023-06-10T06:18:00;100787.69;;;16.39;73.05
78411;BME280;67706;51.074;-1.796;2023-06-10T06:20:27;100787.31;;;16.36;72.70
78411;BME280;67706;51.074;-1.796;2023-06-10T06:22:54;100780.34;;;16.45;72.68
78411;BME280;67706;51.074;-1.796;2023-06-10T06:25:21;100783.28;;;16.50;72.22
78411;BME280;67706;51.074;-1.796;2023-06-10T06:27:48;100779.81;;;16.54;72.19
78411;BME280;67706;51.074;-1.796;2023-06-10T06:30:16;100768.59;;;16.61;72.11
78411;BME280;67706;51.074;-1.796;2023-06-10T06:32:43;100775.38;;;16.65;71.78
78411;BME280;67706;51.074;-1.796;2023-06-10T06:35:10;100771.88;;;16.69;71.28
78411;BME280;67706;51.074;-1.796;2023-06-10T06:37:36;100778.50;;;16.80;71.04
78411;BME280;67706;51.074;-1.796;2023-06-10T06:40:04;100779.09;;;16.82;70.93
78411;BME280;67706;51.074;-1.796;2023-06-10T06:42:31;100774.78;;;16.98;70.58
78411;BME280;67706;51.074;-1.796;2023-06-10T06:44:57;100786.59;;;17.16;70.37
78411;BME280;67706;51.074;-1.796;2023-06-10T06:47:25;100779.47;;;17.20;70.04
78411;BME280;67706;51.074;-1.796;2023-06-10T06:49:52;100770.66;;;17.23;70.18
78411;BME280;67706;51.074;-1.796;2023-06-10T06:52:19;100779.69;;;17.30;69.89
78411;BME280;67706;51.074;-1.796;2023-06-10T06:54:47;100773.53;;;17.40;69.30
78411;BME280;67706;51.074;-1.796;2023-06-10T06:57:14;100778.63;;;17.31;69.24
78411;BME280;67706;51.074;-1.796;2023-06-10T06:59:40;100770.28;;;17.31;69.77
78411;BME280;67706;51.074;-1.796;2023-06-10T07:02:07;100768.34;;;17.43;69.12
78411;BME280;67706;51.074;-1.796;2023-06-10T07:04:36;100774.81;;;17.49;69.50
78411;BME280;67706;51.074;-1.796;2023-06-10T07:07:06;100774.22;;;17.47;69.73
78411;BME280;67706;51.074;-1.796;2023-06-10T07:09:33;100782.94;;;17.39;69.82
78411;BME280;67706;51.074;-1.796;2023-06-10T07:12:00;100779.53;;;17.60;69.12
78411;BME280;67706;51.074;-1.796;2023-06-10T07:14:27;100769.78;;;17.58;69.06
78411;BME280;67706;51.074;-1.796;2023-06-10T07:16:53;100775.56;;;17.68;68.50
78411;BME280;67706;51.074;-1.796;2023-06-10T07:19:20;100772.47;;;17.81;68.08
78411;BME280;67706;51.074;-1.796;2023-06-10T07:21:48;100779.00;;;17.86;67.52
78411;BME280;67706;51.074;-1.796;2023-06-10T07:24:15;100793.41;;;18.00;67.04
78411;BME280;67706;51.074;-1.796;2023-06-10T07:26:41;100786.03;;;18.05;67.05
78411;BME280;67706;51.074;-1.796;2023-06-10T07:29:08;100790.63;;;18.00;67.85
78411;BME280;67706;51.074;-1.796;2023-06-10T07:31:35;100792.78;;;18.09;67.60
78411;BME280;67706;51.074;-1.796;2023-06-10T07:34:01;100792.06;;;18.31;66.51
78411;BME280;67706;51.074;-1.796;2023-06-10T07:36:28;100793.81;;;18.48;66.14
78411;BME280;67706;51.074;-1.796;2023-06-10T07:38:56;100786.22;;;18.60;65.76
78411;BME280;67706;51.074;-1.796;2023-06-10T07:41:23;100786.66;;;18.52;66.03
78411;BME280;67706;51.074;-1.796;2023-06-10T07:43:50;100788.25;;;18.48;66.01
78411;BME280;67706;51.074;-1.796;2023-06-10T07:46:20;100796.75;;;18.58;66.16
78411;BME280;67706;51.074;-1.796;2023-06-10T07:48:46;100796.69;;;18.86;65.27
78411;BME280;67706;51.074;-1.796;2023-06-10T07:51:13;100788.59;;;19.01;65.00
78411;BME280;67706;51.074;-1.796;2023-06-10T07:53:41;100793.47;;;18.94;64.23
78411;BME280;67706;51.074;-1.796;2023-06-10T07:56:09;100793.31;;;18.84;65.51
78411;BME280;67706;51.074;-1.796;2023-06-10T07:58:35;100790.59;;;19.06;64.74
78411;BME280;67706;51.074;-1.796;2023-06-10T08:01:02;100779.47;;;19.23;64.31
78411;BME280;67706;51.074;-1.796;2023-06-10T08:03:28;100778.28;;;19.19;64.32
78411;BME280;67706;51.074;-1.796;2023-06-10T08:05:55;100775.91;;;19.27;63.86
78411;BME280;67706;51.074;-1.796;2023-06-10T08:08:22;100765.19;;;19.36;63.90
78411;BME280;67706;51.074;-1.796;2023-06-10T08:10:48;100765.63;;;19.28;63.47
78411;BME280;67706;51.074;-1.796;2023-06-10T08:13:16;100766.25;;;19.13;64.60
78411;BME280;67706;51.074;-1.796;2023-06-10T08:15:43;100764.13;;;19.37;64.17
78411;BME280;67706;51.074;-1.796;2023-06-10T08:18:10;100764.63;;;19.17;64.81
78411;BME280;67706;51.074;-1.796;2023-06-10T08:20:36;100762.41;;;19.36;64.61
78411;BME280;67706;51.074;-1.796;2023-06-10T08:23:03;100770.41;;;19.70;63.82
78411;BME280;67706;51.074;-1.796;2023-06-10T08:25:30;100777.53;;;19.83;62.89
78411;BME280;67706;51.074;-1.796;2023-06-10T08:27:56;100763.91;;;19.87;62.59
78411;BME280;67706;51.074;-1.796;2023-06-10T08:30:25;100780.44;;;19.93;62.34
78411;BME280;67706;51.074;-1.796;2023-06-10T08:32:51;100784.28;;;20.14;62.10
78411;BME280;67706;51.074;-1.796;2023-06-10T08:35:18;100775.13;;;20.18;61.61
78411;BME280;67706;51.074;-1.796;2023-06-10T08:37:45;100768.53;;;20.24;61.63
78411;BME280;67706;51.074;-1.796;2023-06-10T08:40:12;100779.56;;;20.36;61.31
78411;BME280;67706;51.074;-1.796;2023-06-10T08:42:41;100772.00;;;20.36;61.49
78411;BME280;67706;51.074;-1.796;2023-06-10T08:45:13;100784.44;;;20.50;61.33
78411;BME280;67706;51.074;-1.796;2023-06-10T08:47:44;100783.16;;;20.63;61.29
78411;BME280;67706;51.074;-1.796;2023-06-10T08:50:11;100774.59;;;20.75;60.65
78411;BME280;67706;51.074;-1.796;2023-06-10T08:52:42;100774.16;;;20.88;60.14
78411;BME280;67706;51.074;-1.796;2023-06-10T08:55:11;100772.50;;;20.92;59.82
78411;BME280;67706;51.074;-1.796;2023-06-10T08:57:41;100761.94;;;20.99;59.84
78411;BME280;67706;51.074;-1.796;2023-06-10T09:00:10;100770.38;;;21.04;60.07
78411;BME280;67706;51.074;-1.796;2023-06-10T09:02:38;100770.16;;;21.10;59.49
78411;BME280;67706;51.074;-1.796;2023-06-10T09:05:08;100769.88;;;21.12;59.67
78411;BME280;67706;51.074;-1.796;2023-06-10T09:07:35;100768.00;;;21.22;59.32
78411;BME280;67706;51.074;-1.796;2023-06-10T09:10:03;100768.28;;;21.21;59.61
78411;BME280;67706;51.074;-1.796;2023-06-10T09:12:32;100775.03;;;21.30;59.47
78411;BME280;67706;51.074;-1.796;2023-06-10T09:15:00;100775.38;;;21.44;59.29
78411;BME280;67706;51.074;-1.796;2023-06-10T09:17:27;100772.31;;;21.40;58.95
78411;BME280;67706;51.074;-1.796;2023-06-10T09:19:54;100770.50;;;21.71;58.28
78411;BME280;67706;51.074;-1.796;2023-06-10T09:22:23;100773.31;;;21.76;58.25
78411;BME280;67706;51.074;-1.796;2023-06-10T09:24:52;100765.78;;;21.81;58.78
78411;BME280;67706;51.074;-1.796;2023-06-10T09:27:29;100772.88;;;21.99;57.82
78411;BME280;67706;51.074;-1.796;2023-06-10T09:29:56;100770.13;;;22.09;57.07
78411;BME280;67706;51.074;-1.796;2023-06-10T09:32:24;100779.63;;;22.13;57.19
78411;BME280;67706;51.074;-1.796;2023-06-10T09:34:51;100768.72;;;22.17;56.97
78411;BME280;67706;51.074;-1.796;2023-06-10T09:37:20;100771.53;;;22.22;56.90
78411;BME280;67706;51.074;-1.796;2023-06-10T09:40:01;100771.56;;;22.37;56.74
78411;BME280;67706;51.074;-1.796;2023-06-10T09:42:32;100762.63;;;22.50;55.45
78411;BME280;67706;51.074;-1.796;2023-06-10T09:44:59;100759.84;;;22.55;56.12
78411;BME280;67706;51.074;-1.796;2023-06-10T09:47:26;100762.13;;;22.68;56.38
78411;BME280;67706;51.074;-1.796;2023-06-10T09:49:53;100752.88;;;22.57;55.90
78411;BME280;67706;51.074;-1.796;2023-06-10T09:52:23;100758.44;;;22.42;56.43
78411;BME280;67706;51.074;-1.796;2023-06-10T09:54:51;100759.28;;;22.48;56.56
78411;BME280;67706;51.074;-1.796;2023-06-10T09:57:21;100757.59;;;22.52;56.35
78411;BME280;67706;51.074;-1.796;2023-06-10T09:59:48;100765.75;;;22.58;55.89
78411;BME280;67706;51.074;-1.796;2023-06-10T10:02:19;100754.84;;;22.72;55.54
78411;BME280;67706;51.074;-1.796;2023-06-10T10:04:46;100760.44;;;22.97;55.97
78411;BME280;67706;51.074;-1.796;2023-06-10T10:07:13;100764.31;;;23.11;54.74
78411;BME280;67706;51.074;-1.796;2023-06-10T10:09:41;100767.72;;;23.08;55.26
78411;BME280;67706;51.074;-1.796;2023-06-10T10:12:10;100767.69;;;23.18;55.00
78411;BME280;67706;51.074;-1.796;2023-06-10T10:14:42;100769.34;;;23.34;54.29
78411;BME280;67706;51.074;-1.796;2023-06-10T10:17:10;100758.41;;;23.38;54.41
78411;BME280;67706;51.074;-1.796;2023-06-10T10:19:43;100758.66;;;23.46;54.01
78411;BME280;67706;51.074;-1.796;2023-06-10T10:22:16;100769.06;;;23.41;54.76
78411;BME280;67706;51.074;-1.796;2023-06-10T10:24:49;100755.91;;;23.36;54.73
78411;BME280;67706;51.074;-1.796;2023-06-10T10:27:18;100765.97;;;23.42;55.75
78411;BME280;67706;51.074;-1.796;2023-06-10T10:29:48;100770.19;;;23.35;54.73
78411;BME280;67706;51.074;-1.796;2023-06-10T10:32:21;100767.94;;;23.22;55.05
78411;BME280;67706;51.074;-1.796;2023-06-10T10:34:56;100763.66;;;23.64;54.93
78411;BME280;67706;51.074;-1.796;2023-06-10T10:37:26;100757.66;;;23.86;53.60
78411;BME280;67706;51.074;-1.796;2023-06-10T10:39:53;100764.66;;;23.94;54.56
78411;BME280;67706;51.074;-1.796;2023-06-10T10:42:20;100762.94;;;24.08;53.66
78411;BME280;67706;51.074;-1.796;2023-06-10T10:44:50;100761.13;;;24.27;53.25
78411;BME280;67706;51.074;-1.796;2023-06-10T10:47:19;100765.41;;;24.58;52.65
78411;BME280;67706;51.074;-1.796;2023-06-10T10:49:49;100764.16;;;24.74;52.17
78411;BME280;67706;51.074;-1.796;2023-06-10T10:52:17;100766.22;;;24.97;52.06
78411;BME280;67706;51.074;-1.796;2023-06-10T10:54:45;100756.22;;;25.15;51.64
78411;BME280;67706;51.074;-1.796;2023-06-10T10:57:14;100749.88;;;25.04;51.45
78411;BME280;67706;51.074;-1.796;2023-06-10T10:59:46;100752.03;;;25.41;51.00
78411;BME280;67706;51.074;-1.796;2023-06-10T11:02:17;100754.97;;;25.78;49.16
78411;BME280;67706;51.074;-1.796;2023-06-10T11:04:45;100756.78;;;25.69;48.80
78411;BME280;67706;51.074;-1.796;2023-06-10T11:07:19;100758.56;;;25.84;48.80
78411;BME280;67706;51.074;-1.796;2023-06-10T11:10:00;100748.59;;;25.91;48.55
78411;BME280;67706;51.074;-1.796;2023-06-10T11:12:41;100751.72;;;25.90;48.88
78411;BME280;67706;51.074;-1.796;2023-06-10T11:15:08;100750.50;;;25.96;48.59
78411;BME280;67706;51.074;-1.796;2023-06-10T11:17:36;100750.50;;;25.96;48.27
78411;BME280;67706;51.074;-1.796;2023-06-10T11:20:03;100751.03;;;25.98;48.66
78411;BME280;67706;51.074;-1.796;2023-06-10T11:22:30;100754.16;;;25.96;48.40
78411;BME280;67706;51.074;-1.796;2023-06-10T11:24:57;100745.91;;;26.05;49.20
78411;BME280;67706;51.074;-1.796;2023-06-10T11:27:24;100752.09;;;26.44;48.52
78411;BME280;67706;51.074;-1.796;2023-06-10T11:29:58;100744.53;;;26.58;47.13
78411;BME280;67706;51.074;-1.796;2023-06-10T11:32:29;100752.06;;;26.63;47.61
78411;BME280;67706;51.074;-1.796;2023-06-10T11:34:58;100752.16;;;26.77;47.81
78411;BME280;67706;51.074;-1.796;2023-06-10T11:37:25;100747.22;;;27.01;47.41
78411;BME280;67706;51.074;-1.796;2023-06-10T11:39:52;100746.59;;;27.36;46.08
78411;BME280;67706;51.074;-1.796;2023-06-10T11:42:20;100744.13;;;27.48;46.52
78411;BME280;67706;51.074;-1.796;2023-06-10T11:44:48;100742.41;;;27.33;46.02
78411;BME280;67706;51.074;-1.796;2023-06-10T11:47:16;100735.31;;;27.36;46.80
78411;BME280;67706;51.074;-1.796;2023-06-10T11:49:42;100739.63;;;27.15;46.85
78411;BME280;67706;51.074;-1.796;2023-06-10T11:52:11;100747.16;;;27.06;46.65
78411;BME280;67706;51.074;-1.796;2023-06-10T11:54:38;100738.75;;;26.87;47.06
78411;BME280;67706;51.074;-1.796;2023-06-10T11:57:05;100739.75;;;26.77;48.01
78411;BME280;67706;51.074;-1.796;2023-06-10T11:59:34;100738.47;;;26.51;48.00
78411;BME280;67706;51.074;-1.796;2023-06-10T12:02:00;100723.75;;;26.41;48.77
78411;BME280;67706;51.074;-1.796;2023-06-10T12:04:28;100734.44;;;26.57;47.84
78411;BME280;67706;51.074;-1.796;2023-06-10T12:06:55;100730.78;;;26.75;47.45
78411;BME280;67706;51.074;-1.796;2023-06-10T12:09:24;100735.59;;;27.21;46.95
78411;BME280;67706;51.074;-1.796;2023-06-10T12:11:52;100731.38;;;27.64;46.97
78411;BME280;67706;51.074;-1.796;2023-06-10T12:14:51;100734.69;;;27.93;46.22
78411;BME280;67706;51.074;-1.796;2023-06-10T12:17:20;100731.94;;;28.15;44.88
78411;BME280;67706;51.074;-1.796;2023-06-10T12:19:47;100735.94;;;28.14;44.93
78411;BME280;67706;51.074;-1.796;2023-06-10T12:22:14;100728.50;;;28.18;44.87
78411;BME280;67706;51.074;-1.796;2023-06-10T12:24:57;100720.44;;;28.25;44.75
78411;BME280;67706;51.074;-1.796;2023-06-10T12:27:26;100725.63;;;28.32;44.36
78411;BME280;67706;51.074;-1.796;2023-06-10T12:29:55;100724.16;;;28.35;45.19
78411;BME280;67706;51.074;-1.796;2023-06-10T12:32:35;100723.72;;;28.41;44.48
78411;BME280;67706;51.074;-1.796;2023-06-10T12:35:05;100723.28;;;28.61;44.18
78411;BME280;67706;51.074;-1.796;2023-06-10T12:37:32;100722.06;;;28.76;43.92
78411;BME280;67706;51.074;-1.796;2023-06-10T15:30:19;100674.06;;;28.84;42.81
78411;BME280;67706;51.074;-1.796;2023-06-10T15:32:45;100677.09;;;28.88;43.16
78411;BME280;67706;51.074;-1.796;2023-06-10T15:35:12;100679.50;;;28.72;43.02
78411;BME280;67706;51.074;-1.796;2023-06-10T15:45:12;100682.59;;;28.26;43.86